Time;durP1;ratioP1;P1;durP2;ratioP2;P2;SDS_P1;SDS_P2;PMS_P1;PMS_P2;Temp;Humidity;BMP_temperature;BMP_pressure;BME280_temperature;BME280_humidity;BME280_pressure;Samples;Min_cycle;Max_cycle;Signal;HPM_P1;HPM_P2
2023/03/24 00:00:41;;;;;;;7.13;2.88;;;;;;;-148.88;100.00;74851.09;5017597;28;20025;-77
2023/03/24 00:03:07;;;;;;;4.63;2.50;;;;;;;-148.88;100.00;74861.25;5035368;28;20026;-77
2023/03/24 00:05:32;;;;;;;5.80;3.17;;;;;;;-148.88;100.00;74865.31;5017525;28;20048;-77
2023/03/24 00:08:01;;;;;;;6.53;2.90;;;;;;;-148.88;100.00;74869.38;5017579;28;20024;-77
2023/03/24 00:10:33;;;;;;;6.75;2.42;;;;;;;-148.88;100.00;74863.28;5018160;28;20022;-77
2023/03/24 00:12:59;;;;;;;5.45;2.70;;;;;;;-148.88;100.00;74867.34;5017338;28;20033;-77
2023/03/24 00:15:24;;;;;;;6.15;2.50;;;;;;;-148.88;100.00;74865.31;5034939;28;20022;-77
2023/03/24 00:17:50;;;;;;;4.53;2.67;;;;;;;-148.88;100.00;74847.03;5034980;28;20029;-77
2023/03/24 00:20:18;;;;;;;7.43;2.90;;;;;;;-148.88;100.00;74842.97;5017110;28;20174;-77
2023/03/24 00:22:49;;;;;;;7.50;2.63;;;;;;;-148.88;100.00;74840.94;5017111;28;20018;-77
2023/03/24 00:25:17;;;;;;;5.60;2.50;;;;;;;-148.88;100.00;74842.97;5017218;28;20075;-77
2023/03/24 00:27:43;;;;;;;4.82;2.67;;;;;;;-148.88;100.00;74838.91;5034648;28;20395;-77
2023/03/24 00:30:10;;;;;;;5.32;2.40;;;;;;;-148.88;100.00;74828.75;5034665;28;20017;-77
2023/03/24 00:32:37;;;;;;;6.20;2.80;;;;;;;-148.88;100.00;74830.78;5034718;28;20026;-77
2023/03/24 00:35:07;;;;;;;5.82;2.63;;;;;;;-148.88;100.00;74826.72;5017012;28;20032;-77
2023/03/24 00:37:33;;;;;;;5.38;2.78;;;;;;;-148.88;100.00;74824.69;5034587;28;20025;-77
2023/03/24 00:39:58;;;;;;;4.60;2.60;;;;;;;-148.88;100.00;74830.78;5039458;23;20033;-88
2023/03/24 00:43:12;;;;;;;4.78;2.45;;;;;;;-148.88;100.00;74822.66;5033047;28;20033;-87
2023/03/24 00:45:46;;;;;;;4.82;2.83;;;;;;;-148.88;100.00;74818.59;4938424;28;20435;-88
2023/03/24 00:48:34;;;;;;;6.00;2.60;;;;;;;-148.88;100.00;74812.53;5034387;28;20029;-86
2023/03/24 00:57:14;;;;;;;4.78;2.63;;;;;;;-148.88;100.00;74798.31;5035148;28;20098;-87
2023/03/24 00:59:56;;;;;;;5.93;2.72;;;;;;;-148.88;100.00;74798.31;5036319;28;20457;-87
2023/03/24 01:03:02;;;;;;;4.57;2.55;;;;;;;-148.88;100.00;74784.09;5018472;28;20029;-87
2023/03/24 01:05:29;;;;;;;4.72;1.95;;;;;;;-148.88;100.00;74782.06;5035166;28;20033;-86
2023/03/24 01:07:57;;;;;;;3.75;2.20;;;;;;;-148.88;100.00;74780.03;5034386;28;20033;-85
2023/03/24 01:10:25;;;;;;;4.43;2.55;;;;;;;-148.88;100.00;74778.00;5033591;28;20029;-87
2023/03/24 01:12:51;;;;;;;5.30;2.65;;;;;;;-148.88;100.00;74778.00;5033997;28;20025;-86
2023/03/24 01:15:18;;;;;;;4.90;2.38;;;;;;;-148.88;100.00;74767.84;5034198;28;20100;-87
2023/03/24 01:17:45;;;;;;;3.58;2.22;;;;;;;-148.88;100.00;74767.84;5034076;28;20029;-86
2023/03/24 01:20:11;;;;;;;5.82;2.65;;;;;;;-148.88;100.00;74749.56;5015942;28;20074;-87
2023/03/24 01:22:39;;;;;;;5.50;2.63;;;;;;;-148.88;100.00;74749.56;5033724;28;20427;-87
2023/03/24 01:25:08;;;;;;;2.72;1.27;;;;;;;-148.88;100.00;74741.44;5033634;28;20084;-87
2023/03/24 01:27:35;;;;;;;4.32;2.30;;;;;;;-148.88;100.00;74737.38;5015919;28;20021;-85
2023/03/24 01:30:01;;;;;;;3.88;2.15;;;;;;;-148.88;100.00;74733.31;5033436;28;20022;-87
2023/03/24 01:32:28;;;;;;;6.22;2.42;;;;;;;-148.88;100.00;74727.22;5034169;28;20029;-86
2023/03/24 01:34:53;;;;;;;3.30;2.33;;;;;;;-148.88;100.00;74708.94;5033519;28;20029;-86
2023/03/24 01:37:19;;;;;;;2.75;1.40;;;;;;;-148.88;100.00;74725.19;5033384;28;20079;-86
2023/03/24 01:39:44;;;;;;;4.30;2.30;;;;;;;-148.88;100.00;74713.00;5033117;28;20476;-85
2023/03/24 01:42:17;;;;;;;4.40;2.25;;;;;;;-148.88;100.00;74702.84;5015645;28;20049;-86
2023/03/24 01:44:46;;;;;;;3.17;1.83;;;;;;;-148.88;100.00;74700.84;5033081;28;20083;-86
2023/03/24 01:47:12;;;;;;;3.20;2.38;;;;;;;-148.88;100.00;74704.88;5015464;28;20116;-87
2023/03/24 01:49:43;;;;;;;3.80;2.00;;;;;;;-148.88;100.00;74700.84;5033152;28;20087;-88
2023/03/24 01:52:17;;;;;;;4.28;1.60;;;;;;;-148.88;100.00;74692.72;5033379;28;20160;-85
2023/03/24 01:54:47;;;;;;;4.15;2.33;;;;;;;-148.88;100.00;74680.53;5032667;28;20426;-86
2023/03/24 01:57:37;;;;;;;3.65;2.30;;;;;;;-148.88;100.00;74690.69;5032964;28;20039;-87
2023/03/24 02:00:10;;;;;;;5.20;2.20;;;;;;;-148.88;100.00;74688.66;5032823;28;20043;-87
2023/03/24 02:02:37;;;;;;;3.38;2.15;;;;;;;-148.88;100.00;74676.47;5016087;28;20103;-87
2023/03/24 02:05:06;;;;;;;4.32;2.08;;;;;;;-148.88;100.00;74684.59;5032737;28;20461;-88
2023/03/24 02:08:03;;;;;;;3.13;1.88;;;;;;;-148.88;100.00;74682.56;5015133;28;20441;-87
2023/03/24 02:10:32;;;;;;;4.20;2.10;;;;;;;-148.88;100.00;74684.59;5005122;28;20041;-86
2023/03/24 02:12:57;;;;;;;3.80;2.47;;;;;;;-148.88;100.00;74668.34;5032486;28;20456;-87
2023/03/24 02:15:25;;;;;;;4.97;2.30;;;;;;;-148.88;100.00;74664.28;5032681;28;20057;-87
2023/03/24 02:18:20;;;;;;;4.28;2.22;;;;;;;-148.88;100.00;74660.22;5032588;28;20029;-86
2023/03/24 02:21:18;;;;;;;3.65;2.03;;;;;;;-148.88;100.00;74664.28;5032425;28;20488;-86
2023/03/24 02:24:06;;;;;;;3.97;2.40;;;;;;;-148.88;100.00;74660.22;5029428;28;20038;-87
2023/03/24 02:27:01;;;;;;;3.30;2.10;;;;;;;-148.88;100.00;74633.81;5032591;28;20510;-85
2023/03/24 02:29:40;;;;;;;3.83;2.30;;;;;;;-148.88;100.00;74629.75;5014817;28;20060;-87
2023/03/24 02:32:28;;;;;;;6.05;2.70;;;;;;;-148.88;100.00;74631.78;5032393;28;20487;-88
2023/03/24 02:35:12;;;;;;;4.72;2.25;;;;;;;-148.88;100.00;74627.72;5032605;28;20061;-87
2023/03/24 02:37:59;;;;;;;4.20;2.35;;;;;;;-148.88;100.00;74635.84;5014869;28;20085;-87
2023/03/24 02:40:59;;;;;;;3.95;2.28;;;;;;;-148.88;100.00;74617.56;5032410;28;20040;-86
2023/03/24 02:43:51;;;;;;;3.75;2.55;;;;;;;-148.88;100.00;74611.47;4987633;28;20045;-87
2023/03/24 02:46:31;;;;;;;4.50;2.55;;;;;;;-148.88;100.00;74615.53;5032459;28;20026;-87
2023/03/24 02:49:28;;;;;;;4.72;3.05;;;;;;;-148.88;100.00;74607.41;5033135;28;20061;-86
2023/03/24 02:52:06;;;;;;;6.20;2.55;;;;;;;-148.88;100.00;74603.34;5032718;28;20533;-86
2023/03/24 02:54:57;;;;;;;4.78;2.50;;;;;;;-148.88;100.00;74591.19;5014793;28;20110;-86
2023/03/24 02:57:36;;;;;;;3.70;1.95;;;;;;;-148.88;100.00;74570.88;5015115;28;20052;-87
2023/03/24 03:00:19;;;;;;;4.28;2.50;;;;;;;-148.88;100.00;74572.91;5032259;28;20495;-86
2023/03/24 03:02:50;;;;;;;5.72;2.65;;;;;;;-148.88;100.00;74558.69;5032438;28;20488;-87
2023/03/24 03:05:22;;;;;;;4.90;2.60;;;;;;;-148.88;100.00;74562.75;5014387;28;20395;-87
2023/03/24 03:07:49;;;;;;;4.40;2.83;;;;;;;-148.88;100.00;74548.53;5017693;28;20026;-88
2023/03/24 03:10:30;;;;;;;4.20;2.80;;;;;;;-148.88;100.00;74542.44;5018373;28;20060;-86
2023/03/24 03:13:00;;;;;;;3.50;2.70;;;;;;;-148.88;100.00;74552.59;5018346;28;20112;-87
2023/03/24 03:15:31;;;;;;;4.55;2.42;;;;;;;-148.88;100.00;74550.56;5036119;28;20079;-87
2023/03/24 03:18:09;;;;;;;4.43;2.70;;;;;;;-148.88;100.00;74538.38;5018321;28;20484;-86
2023/03/24 03:20:41;;;;;;;3.28;2.67;;;;;;;-148.88;100.00;74538.38;5018355;28;20021;-87
2023/03/24 03:23:12;;;;;;;4.60;3.17;;;;;;;-148.88;100.00;74526.19;5035722;28;20045;-87
2023/03/24 03:25:45;;;;;;;4.13;3.00;;;;;;;-148.88;100.00;74538.38;5018665;28;20135;-87
2023/03/24 03:28:13;;;;;;;5.40;3.35;;;;;;;-148.88;100.00;74538.38;5035478;28;20022;-87
2023/03/24 03:30:44;;;;;;;5.15;3.40;;;;;;;-148.88;100.00;74542.44;5017701;28;20099;-86
2023/03/24 03:33:23;;;;;;;4.50;3.30;;;;;;;-148.88;100.00;74542.44;5035694;28;20025;-87
2023/03/24 03:35:56;;;;;;;5.63;3.42;;;;;;;-148.88;100.00;74548.53;5018494;28;20039;-87
2023/03/24 03:38:35;;;;;;;6.55;3.78;;;;;;;-148.88;100.00;74544.47;5035947;28;20113;-87
2023/03/24 03:41:03;;;;;;;5.10;3.92;;;;;;;-148.88;100.00;74544.47;5017775;28;20056;-87
2023/03/24 03:43:30;;;;;;;4.95;3.78;;;;;;;-148.88;100.00;74542.44;5035615;28;20046;-87
2023/03/24 03:45:57;;;;;;;5.47;3.92;;;;;;;-148.88;100.00;74540.41;5035331;28;20159;-87
2023/03/24 03:48:25;;;;;;;5.60;3.90;;;;;;;-148.88;100.00;74546.50;5017423;28;20025;-86
2023/03/24 03:50:52;;;;;;;5.18;4.30;;;;;;;-148.88;100.00;74544.47;5035080;28;20033;-86
2023/03/24 03:53:21;;;;;;;6.00;4.10;;;;;;;-148.88;100.00;74544.47;5035070;28;20056;-88
2023/03/24 03:55:47;;;;;;;5.45;4.00;;;;;;;-148.88;100.00;74546.50;5017367;28;20116;-88
2023/03/24 03:58:12;;;;;;;6.10;4.40;;;;;;;-148.88;100.00;74542.44;5017279;28;20207;-87
2023/03/24 04:00:38;;;;;;;5.25;4.22;;;;;;;-148.88;100.00;74538.38;5017219;28;20104;-88
2023/03/24 04:03:16;;;;;;;5.95;4.55;;;;;;;-148.88;100.00;74540.41;5035316;28;20076;-88
2023/03/24 04:06:12;;;;;;;6.22;4.70;;;;;;;-148.88;100.00;74538.38;5018232;28;20093;-86
2023/03/24 04:08:49;;;;;;;5.40;4.47;;;;;;;-148.88;100.00;74522.13;5000549;28;20045;-86
2023/03/24 04:11:30;;;;;;;5.40;3.13;;;;;;;-148.88;100.00;74532.28;5034928;28;20200;-88
2023/03/24 04:14:02;;;;;;;5.57;4.38;;;;;;;-148.88;100.00;74536.34;5017519;28;20021;-88
2023/03/24 04:16:58;;;;;;;6.15;4.20;;;;;;;-148.88;100.00;74520.09;5017891;28;20125;-87
2023/03/24 04:19:54;;;;;;;5.82;4.22;;;;;;;-148.88;100.00;74514.00;5024658;28;20034;-87
2023/03/24 04:22:55;;;;;;;6.85;4.32;;;;;;;-148.88;100.00;74514.00;5036230;28;20029;-86
2023/03/24 04:25:49;;;;;;;5.68;4.13;;;;;;;-148.88;100.00;74514.00;5036292;28;20029;-86
2023/03/24 04:28:42;;;;;;;5.78;4.43;;;;;;;-148.88;100.00;74507.91;5035011;28;20391;-85
2023/03/24 04:31:30;;;;;;;4.78;3.97;;;;;;;-148.88;100.00;74509.94;5017654;28;20076;-85
2023/03/24 04:34:24;;;;;;;5.43;4.20;;;;;;;-148.88;100.00;74503.84;5035455;28;20029;-84
2023/03/24 04:37:04;;;;;;;5.80;4.53;;;;;;;-148.88;100.00;74497.78;5019277;28;20022;-85
2023/03/24 04:39:34;;;;;;;6.22;4.18;;;;;;;-148.88;100.00;74497.78;5037064;28;20113;-85
2023/03/24 04:42:04;;;;;;;6.68;4.57;;;;;;;-148.88;100.00;74489.66;5034750;28;20032;-85
2023/03/24 04:44:32;;;;;;;6.65;4.50;;;;;;;-148.88;100.00;74493.72;5017952;28;20029;-85
2023/03/24 04:47:02;;;;;;;6.78;4.43;;;;;;;-148.88;100.00;74485.59;5017686;28;20495;-85
2023/03/24 04:49:29;;;;;;;5.07;4.43;;;;;;;-148.88;100.00;74471.38;5034130;28;20030;-86
2023/03/24 04:51:55;;;;;;;5.20;3.83;;;;;;;-148.88;100.00;74473.41;5034339;28;20048;-85
2023/03/24 04:54:22;;;;;;;5.53;4.07;;;;;;;-148.88;100.00;74465.28;5015530;28;20041;-87
2023/03/24 04:56:58;;;;;;;7.43;4.28;;;;;;;-148.88;100.00;74473.41;5033101;28;20045;-87
2023/03/24 04:59:23;;;;;;;6.22;3.97;;;;;;;-148.88;100.00;74481.53;5033976;28;20053;-87
2023/03/24 05:01:49;;;;;;;4.78;3.80;;;;;;;-148.88;100.00;74463.25;5017178;28;20124;-87
2023/03/24 05:04:19;;;;;;;5.90;4.10;;;;;;;-148.88;100.00;74473.41;5016353;28;20029;-87
2023/03/24 05:06:48;;;;;;;7.00;4.10;;;;;;;-148.88;100.00;74455.13;5033832;28;20025;-87
2023/03/24 05:09:17;;;;;;;6.30;3.88;;;;;;;-148.88;100.00;74455.13;5015826;28;20034;-87
2023/03/24 05:11:44;;;;;;;5.70;4.25;;;;;;;-148.88;100.00;74453.09;5015642;28;20032;-87
2023/03/24 05:14:09;;;;;;;7.60;4.85;;;;;;;-148.88;100.00;74457.16;5033843;28;20124;-87
2023/03/24 05:16:35;;;;;;;6.60;4.18;;;;;;;-148.88;100.00;74471.38;5015900;28;20082;-86
2023/03/24 05:19:01;;;;;;;5.47;4.00;;;;;;;-148.88;100.00;74461.22;5015976;28;20013;-87
2023/03/24 05:21:26;;;;;;;5.55;4.15;;;;;;;-148.88;100.00;74469.34;5033672;28;20494;-87
2023/03/24 05:23:52;;;;;;;4.70;4.18;;;;;;;-148.88;100.00;74477.47;5033619;28;20056;-87
2023/03/24 05:26:17;;;;;;;6.18;4.40;;;;;;;-148.88;100.00;74483.56;5034092;28;20029;-87
2023/03/24 05:28:42;;;;;;;5.13;3.42;;;;;;;-148.88;100.00;74481.53;5033285;28;20107;-88
2023/03/24 05:31:08;;;;;;;5.50;4.15;;;;;;;-148.88;100.00;74461.22;5015654;28;20039;-87
2023/03/24 05:33:33;;;;;;;5.65;3.33;;;;;;;-148.88;100.00;74477.47;5033725;28;20103;-87
2023/03/24 05:35:58;;;;;;;3.70;3.05;;;;;;;-148.88;100.00;74489.66;5033313;28;20024;-88
2023/03/24 05:38:24;;;;;;;4.45;3.05;;;;;;;-148.88;100.00;74487.63;5034049;28;20040;-86
2023/03/24 05:40:49;;;;;;;3.85;2.80;;;;;;;-148.88;100.00;74497.78;5033556;28;20021;-84
2023/03/24 05:43:14;;;;;;;5.00;2.60;;;;;;;-148.88;100.00;74495.75;5016550;28;20100;-84
2023/03/24 05:45:40;;;;;;;4.03;2.70;;;;;;;-148.88;100.00;74507.91;5033138;28;20112;-84
2023/03/24 05:48:07;;;;;;;4.43;2.40;;;;;;;-148.88;100.00;74524.16;5033773;28;20098;-84
2023/03/24 05:50:33;;;;;;;3.42;1.98;;;;;;;-148.88;100.00;74520.09;5016732;28;20086;-84
2023/03/24 05:52:59;;;;;;;3.88;2.67;;;;;;;-148.88;100.00;74534.31;5033742;28;20025;-83
2023/03/24 05:55:25;;;;;;;4.28;2.38;;;;;;;-148.88;100.00;74526.19;5015978;28;20032;-83
2023/03/24 05:57:50;;;;;;;3.45;2.60;;;;;;;-148.88;100.00;74554.63;5016749;28;20026;-84
2023/03/24 06:00:16;;;;;;;6.30;2.80;;;;;;;-148.88;100.00;74558.69;5015320;28;20017;-84
2023/03/24 06:02:43;;;;;;;4.03;2.72;;;;;;;-148.88;100.00;74562.75;5015814;28;20025;-84
2023/03/24 06:05:10;;;;;;;6.50;4.93;;;;;;;-148.88;100.00;74576.97;5033060;28;20064;-84
2023/03/24 06:07:37;;;;;;;5.78;4.50;;;;;;;-148.88;100.00;74579.00;5033340;28;20029;-84
2023/03/24 06:10:06;;;;;;;6.03;3.90;;;;;;;-148.88;100.00;74583.06;5032940;28;20026;-84
2023/03/24 06:12:32;;;;;;;4.15;3.55;;;;;;;-148.88;100.00;74585.09;5015638;28;20025;-84
2023/03/24 06:14:57;;;;;;;4.72;3.80;;;;;;;-148.88;100.00;74587.13;5033596;28;20029;-84
2023/03/24 06:17:23;;;;;;;4.72;3.65;;;;;;;-148.88;100.00;74597.25;5034728;28;20029;-84
2023/03/24 06:19:50;;;;;;;4.53;2.20;;;;;;;-148.88;100.00;74615.53;5034447;28;20032;-84
2023/03/24 06:22:16;;;;;;;2.70;1.77;;;;;;;-148.88;100.00;74621.63;5034511;28;20087;-84
2023/03/24 06:24:42;;;;;;;3.10;1.40;;;;;;;-148.88;100.00;74635.84;5034433;28;20104;-84
2023/03/24 06:27:10;;;;;;;2.53;1.10;;;;;;;-148.88;100.00;74656.16;5033144;28;20029;-84
2023/03/24 06:29:36;;;;;;;1.98;1.05;;;;;;;-148.88;100.00;74666.31;5032887;28;20028;-83
2023/03/24 06:32:02;;;;;;;3.13;1.42;;;;;;;-148.88;100.00;74672.41;5033679;28;20025;-84
2023/03/24 06:34:28;;;;;;;3.75;1.10;;;;;;;-148.88;100.00;74684.59;5034425;28;20040;-83
2023/03/24 06:36:55;;;;;;;2.78;1.40;;;;;;;-148.88;100.00;74706.91;5000067;28;20037;-84
2023/03/24 06:39:20;;;;;;;4.93;1.33;;;;;;;-148.88;100.00;74710.97;4983147;28;20026;-85
2023/03/24 06:41:46;;;;;;;3.28;1.30;;;;;;;-148.88;100.00;74723.16;5035661;28;20026;-86
2023/03/24 06:44:12;;;;;;;2.67;1.27;;;;;;;-148.88;100.00;74733.31;5037669;28;20095;-85
2023/03/24 06:46:39;;;;;;;2.47;0.95;;;;;;;-148.88;100.00;74761.75;5019193;28;20133;-85
2023/03/24 06:49:04;;;;;;;2.03;1.23;;;;;;;-148.88;100.00;74773.94;5037061;28;20104;-84
2023/03/24 06:51:30;;;;;;;3.25;1.30;;;;;;;-148.88;100.00;74765.81;5037103;28;20411;-84
2023/03/24 06:53:55;;;;;;;2.55;1.00;;;;;;;-148.88;100.00;74769.88;5036277;28;20071;-86
2023/03/24 06:56:20;;;;;;;4.10;1.50;;;;;;;-148.88;100.00;74761.75;5036156;28;20025;-85
2023/03/24 06:58:47;;;;;;;2.55;1.23;;;;;;;-148.88;100.00;74765.81;5036715;28;20148;-83
2023/03/24 07:01:13;;;;;;;2.05;0.90;;;;;;;-148.88;100.00;74780.03;5037229;28;20021;-84
2023/03/24 07:03:40;;;;;;;4.47;1.40;;;;;;;-148.88;100.00;74782.06;5036384;28;20034;-84
2023/03/24 07:06:06;;;;;;;2.22;1.02;;;;;;;-148.88;100.00;74794.25;5037247;28;20022;-84
2023/03/24 07:08:32;;;;;;;4.40;1.30;;;;;;;-148.88;100.00;74802.38;5038284;28;20063;-84
2023/03/24 07:10:58;;;;;;;4.32;1.40;;;;;;;-148.88;100.00;74806.44;5037153;28;20480;-84
2023/03/24 07:13:24;;;;;;;3.42;1.40;;;;;;;-148.88;100.00;74814.53;5021567;28;20040;-84
2023/03/24 07:15:50;;;;;;;4.35;1.67;;;;;;;-148.88;100.00;74836.88;5036589;28;20030;-84
2023/03/24 07:18:15;;;;;;;3.95;1.40;;;;;;;-148.88;100.00;74816.56;5042652;28;20032;-84
2023/03/24 07:20:41;;;;;;;3.75;1.60;;;;;;;-148.88;100.00;74826.72;5038477;28;20180;-84
2023/03/24 07:23:08;;;;;;;4.10;1.50;;;;;;;-148.88;100.00;74834.84;5039843;28;20052;-83
2023/03/24 07:25:34;;;;;;;5.38;1.52;;;;;;;-148.88;100.00;74830.78;5038017;28;20021;-84
2023/03/24 07:28:02;;;;;;;3.78;1.55;;;;;;;-148.88;100.00;74838.91;5036619;28;20108;-84
2023/03/24 07:30:27;;;;;;;5.28;1.75;;;;;;;-148.88;99.19;74863.28;5037171;28;20399;-84
2023/03/24 07:32:55;;;;;;;5.78;1.88;;;;;;;-148.88;100.00;74877.50;5018510;28;20554;-82
2023/03/24 07:35:21;;;;;;;7.55;2.60;;;;;;;-148.88;99.08;74883.59;5036273;28;20025;-84
2023/03/24 07:37:46;;;;;;;7.63;2.35;;;;;;;-148.88;99.19;74887.66;5037202;28;20399;-84
2023/03/24 07:40:12;;;;;;;8.73;2.22;;;;;;;-148.88;98.56;74895.78;5037343;28;20028;-84
2023/03/24 07:42:38;;;;;;;10.23;2.88;;;;;;;-148.88;99.33;74891.72;5036890;28;20044;-84
2023/03/24 07:45:05;;;;;;;8.23;2.00;;;;;;;-148.88;99.02;74871.41;5036896;28;20036;-84
2023/03/24 07:47:30;;;;;;;3.55;1.45;;;;;;;-148.88;99.40;74853.13;5039548;28;20037;-84
2023/03/24 07:50:52;;;;;;;7.75;3.05;;;;;;;-148.88;100.00;74847.03;5117427;27;20380;-80
2023/03/24 07:53:18;;;;;;;9.55;3.35;;;;;;;-148.88;97.72;74865.31;5116138;28;20032;-80
2023/03/24 07:55:44;;;;;;;8.93;3.50;;;;;;;-148.88;98.04;74845.00;5116789;28;20039;-79
2023/03/24 07:58:10;;;;;;;7.28;2.08;;;;;;;-148.88;98.96;74851.09;5116557;28;20494;-79
2023/03/24 08:00:36;;;;;;;7.95;3.22;;;;;;;-148.88;96.38;74851.09;5116770;28;20043;-79
2023/03/24 08:03:02;;;;;;;10.35;3.30;;;;;;;-148.88;98.11;74851.09;5117313;28;20076;-79
2023/03/24 08:05:29;;;;;;;9.40;3.17;;;;;;;-148.88;97.73;74857.19;5112191;28;20020;-78
2023/03/24 08:07:56;;;;;;;15.95;3.67;;;;;;;-148.88;97.49;74842.97;5110388;28;20039;-78
2023/03/24 08:10:29;;;;;;;11.52;3.40;;;;;;;-148.88;96.54;74867.34;5110349;28;20012;-78
2023/03/24 08:12:56;;;;;;;8.45;3.55;;;;;;;-148.88;96.99;74851.09;5109055;28;20023;-79
2023/03/24 08:15:22;;;;;;;11.30;3.60;;;;;;;-148.88;96.57;74851.09;5109173;28;20406;-78
2023/03/24 08:17:49;;;;;;;12.50;3.97;;;;;;;-148.88;97.06;74834.84;5109116;28;20031;-78
2023/03/24 08:20:15;;;;;;;10.10;3.67;;;;;;;-148.88;96.96;74826.72;5111734;28;20028;-79
2023/03/24 08:22:42;;;;;;;10.48;3.83;;;;;;;-148.88;95.39;74830.78;5114322;28;20087;-80
2023/03/24 08:25:10;;;;;;;8.15;3.25;;;;;;;-148.88;95.04;74822.66;5114302;28;20023;-80
2023/03/24 08:27:36;;;;;;;8.32;3.10;;;;;;;-148.88;93.56;74802.38;5115690;28;20038;-80
2023/03/24 08:30:04;;;;;;;10.75;2.63;;;;;;;-148.88;93.11;74806.44;5114991;28;20108;-80
2023/03/24 08:32:29;;;;;;;10.18;3.67;;;;;;;-148.88;92.85;74802.38;5114633;28;20043;-79
2023/03/24 08:34:56;;;;;;;12.82;3.45;;;;;;;-148.88;93.77;74806.44;5114780;28;20365;-81
2023/03/24 08:37:23;;;;;;;10.50;3.13;;;;;;;-148.88;93.75;74798.31;5115790;28;20378;-80
2023/03/24 08:39:49;;;;;;;11.38;3.30;;;;;;;-148.88;93.18;74814.53;5115429;28;20031;-79
2023/03/24 08:42:14;;;;;;;12.75;3.72;;;;;;;-148.88;93.38;74810.50;5112748;28;20016;-79
2023/03/24 08:44:40;;;;;;;9.77;3.33;;;;;;;-148.88;91.91;74812.53;5108625;28;20024;-78
2023/03/24 08:47:06;;;;;;;11.18;3.58;;;;;;;-148.88;93.03;74784.09;5109621;28;20019;-80
2023/03/24 08:49:31;;;;;;;13.18;3.05;;;;;;;-148.88;91.63;74810.50;5107987;28;20393;-79
2023/03/24 08:51:56;;;;;;;7.82;3.30;;;;;;;-148.88;92.31;74804.41;5110622;28;20051;-79
2023/03/24 08:54:23;;;;;;;11.93;4.35;;;;;;;-148.88;93.41;74818.59;5109546;28;20102;-79
2023/03/24 08:56:49;;;;;;;13.82;3.65;;;;;;;-148.88;93.20;74814.53;5111622;28;20474;-80
2023/03/24 08:59:15;;;;;;;10.45;3.45;;;;;;;-148.88;92.92;74812.53;5113846;28;20030;-80
2023/03/24 09:01:43;;;;;;;11.38;3.25;;;;;;;-148.88;92.60;74806.44;5102481;28;20016;-80
2023/03/24 09:04:08;;;;;;;11.77;3.53;;;;;;;-148.88;92.51;74814.53;5100220;28;20024;-80
2023/03/24 09:06:34;;;;;;;15.00;4.40;;;;;;;-148.88;91.78;74810.50;5100646;28;20031;-80
2023/03/24 09:08:59;;;;;;;9.13;3.65;;;;;;;-148.88;92.21;74816.56;5099493;28;20020;-80
2023/03/24 09:11:24;;;;;;;11.13;3.42;;;;;;;-148.88;92.02;74814.53;5100148;28;20034;-80
2023/03/24 09:13:49;;;;;;;14.93;3.92;;;;;;;-148.88;92.28;74808.47;5099591;28;20035;-80
2023/03/24 09:16:16;;;;;;;10.50;3.20;;;;;;;-148.88;89.88;74806.44;5101310;28;20024;-80
2023/03/24 09:18:42;;;;;;;9.15;3.45;;;;;;;-148.88;91.54;74804.41;5095794;28;20486;-79
2023/03/24 09:21:07;;;;;;;13.63;3.88;;;;;;;-148.88;92.29;74796.28;5095855;28;20028;-79
2023/03/24 09:23:33;;;;;;;9.52;2.65;;;;;;;-148.88;89.89;74782.06;5095514;28;20066;-79
2023/03/24 09:25:59;;;;;;;8.68;3.60;;;;;;;-148.88;90.15;74773.94;5095796;28;20028;-80
2023/03/24 09:28:24;;;;;;;8.73;3.35;;;;;;;-148.88;89.57;74761.75;5094896;28;20077;-80
2023/03/24 09:30:50;;;;;;;10.00;3.13;;;;;;;-148.88;89.60;74721.13;5095284;28;20024;-80
2023/03/24 09:33:16;;;;;;;9.65;3.45;;;;;;;-148.88;89.41;74686.63;5098045;28;20367;-80
2023/03/24 09:35:41;;;;;;;11.07;3.75;;;;;;;-148.88;90.54;74670.38;5101589;28;20020;-80
2023/03/24 09:38:09;;;;;;;11.40;3.80;;;;;;;-148.88;88.62;74678.50;5100577;28;20016;-80
2023/03/24 09:40:37;;;;;;;8.88;3.30;;;;;;;-148.88;84.62;74668.34;5101476;28;20024;-80
2023/03/24 09:43:08;;;;;;;13.98;3.72;;;;;;;-148.88;85.33;74698.78;5100334;28;20050;-80
2023/03/24 09:45:47;;;;;;;7.22;2.83;;;;;;;-148.88;84.97;74717.06;5100781;28;20042;-80
2023/03/24 09:48:17;;;;;;;11.18;3.33;;;;;;;-148.88;87.32;74733.31;5099791;28;20051;-80
2023/03/24 09:50:50;;;;;;;8.75;3.13;;;;;;;-148.88;86.03;74729.25;5098008;28;20081;-80
2023/03/24 09:53:29;;;;;;;10.32;3.35;;;;;;;-148.88;86.52;74739.41;5099441;28;20032;-80
2023/03/24 09:55:54;;;;;;;7.57;3.03;;;;;;;-148.88;87.26;74725.19;5095023;28;20078;-79
2023/03/24 09:58:21;;;;;;;4.82;2.63;;;;;;;-148.88;86.82;74696.78;5095142;28;20024;-80
2023/03/24 10:00:46;;;;;;;10.20;3.08;;;;;;;-148.88;83.44;74676.47;5093608;28;20069;-79
2023/03/24 10:03:21;;;;;;;9.32;2.38;;;;;;;-148.88;81.88;74631.78;5093559;28;20035;-79
2023/03/24 10:05:57;;;;;;;7.80;2.60;;;;;;;-148.88;80.68;74562.75;5093329;28;20023;-79
2023/03/24 10:08:40;;;;;;;5.88;2.20;;;;;;;-148.88;78.35;74556.66;5097676;28;20371;-81
2023/03/24 10:11:19;;;;;;;7.47;2.63;;;;;;;-148.88;76.43;74493.72;5101366;28;20028;-80
2023/03/24 10:14:12;;;;;;;9.25;3.13;;;;;;;-148.88;77.72;74516.03;5098867;28;20498;-81
2023/03/24 10:16:58;;;;;;;7.10;2.73;;;;;;;-148.88;76.16;74485.59;5100009;28;20026;-79
2023/03/24 10:19:35;;;;;;;7.40;2.53;;;;;;;-148.88;75.55;74489.66;5098747;28;20248;-80
2023/03/24 10:22:36;;;;;;;5.80;2.00;;;;;;;-148.88;77.73;74591.19;5099762;28;20059;-79
2023/03/24 10:25:14;;;;;;;7.70;2.17;;;;;;;-148.88;77.72;74554.63;5100109;28;20446;-80
2023/03/24 10:27:52;;;;;;;7.45;2.30;;;;;;;-148.88;78.48;74603.34;5098851;28;20016;-79
2023/03/24 10:30:48;;;;;;;6.43;2.60;;;;;;;-148.88;78.29;74583.06;5099151;28;20026;-79
2023/03/24 10:33:14;;;;;;;8.73;2.13;;;;;;;-148.88;76.49;74518.06;5077951;28;20085;-79
2023/03/24 10:36:08;;;;;;;9.30;2.28;;;;;;;-148.88;78.37;74562.75;5096491;28;20027;-79
2023/03/24 10:38:34;;;;;;;;;;;;;;;-148.88;76.34;74613.50;5093257;28;20081;-79
2023/03/24 10:41:01;;;;;;;7.82;2.38;;;;;;;-148.88;78.13;74639.91;5094513;28;19961;-80
2023/03/24 10:43:26;;;;;;;7.45;2.45;;;;;;;-148.88;78.51;74662.25;5096545;28;20039;-79
2023/03/24 10:45:54;;;;;;;6.32;2.28;;;;;;;-148.88;79.18;74678.50;5098812;28;20020;-79
2023/03/24 10:48:38;;;;;;;8.85;2.10;;;;;;;-148.88;79.29;74682.56;5098711;28;20024;-80
2023/03/24 10:51:04;;;;;;;;;;;;;;;-148.88;78.20;74682.56;5099570;28;20047;-80
2023/03/24 10:53:30;;;;;;;7.38;2.10;;;;;;;-148.88;78.81;74682.56;5096919;28;19908;-80
2023/03/24 10:55:56;;;;;;;7.90;2.38;;;;;;;-148.88;79.95;74692.72;5098879;28;20398;-80
2023/03/24 10:58:27;;;;;;;9.32;2.58;;;;;;;-148.88;78.67;74698.78;5097858;28;20031;-80
2023/03/24 11:00:53;;;;;;;6.63;2.00;;;;;;;-148.88;77.88;74692.72;5099197;28;20104;-80
2023/03/24 11:03:28;;;;;;;7.38;2.13;;;;;;;-148.88;79.63;74704.88;5099424;28;20534;-80
2023/03/24 11:06:01;;;;;;;8.20;1.88;;;;;;;-148.88;79.12;74702.84;5098831;28;20038;-80
2023/03/24 11:08:27;;;;;;;10.50;2.40;;;;;;;-148.88;80.82;74725.19;5093219;28;20046;-79
2023/03/24 11:10:54;;;;;;;6.05;2.05;;;;;;;-148.88;80.98;74747.53;5093529;28;20482;-79
2023/03/24 11:13:39;;;;;;;9.40;2.10;;;;;;;-148.88;80.68;74745.50;5093001;28;20032;-79
2023/03/24 11:16:14;;;;;;;8.23;1.88;;;;;;;-148.88;79.64;74735.34;5093657;28;20040;-79
2023/03/24 11:18:59;;;;;;;8.20;1.90;;;;;;;-148.88;79.35;74735.34;5094139;28;20031;-79
2023/03/24 11:21:27;;;;;;;8.23;2.10;;;;;;;-148.88;80.12;74727.22;5098169;28;20020;-80
2023/03/24 11:23:56;;;;;;;10.27;2.05;;;;;;;-148.88;80.79;74741.44;5096573;28;20031;-80
2023/03/24 11:26:30;;;;;;;8.45;2.35;;;;;;;-148.88;81.61;74708.94;5098089;28;20027;-80
2023/03/24 11:28:59;;;;;;;10.55;2.20;;;;;;;-148.88;80.13;74694.75;5097874;28;20034;-80
2023/03/24 11:31:29;;;;;;;7.93;2.08;;;;;;;-148.88;79.55;74676.47;5097552;28;20472;-79
2023/03/24 11:33:56;;;;;;;6.53;2.00;;;;;;;-148.88;78.79;74654.13;5098209;28;20537;-80
2023/03/24 11:36:34;;;;;;;7.65;1.90;;;;;;;-148.88;76.74;74664.28;5098074;28;20030;-79